Lochloosa, Florida
Current Conditions -  °F | °C
As of 3:53 PM on Friday 28 Nov 2014 (Local Time) from KGNV Reporting Station
Clear Clear  
Wind Chill: 13°   Ceiling: Unl
Heat Index: 13°   Visibility: 10mi
Dew Point: -1°   Wind: 7mph
Humidity: 37%   Direction: 50°NE
Pressure: 30.29"   Gusts: NA
Location:  29.51°N, 82.1°W
Report Text: KGNV 282053Z 05006KT 10SM CLR 13/M01 A3029 RMK AO2 SLP258 T01331011 56012
Loading
Personal Weather Stations






























Interactive Weather Map New forecast layout! Learn more

10-Day Weather Forecast

Advertisements
Track Severe Weather on mobile